Time;durP1;ratioP1;P1;durP2;ratioP2;P2;SDS_P1;SDS_P2;PMS_P1;PMS_P2;Temp;Humidity;BMP_temperature;BMP_pressure;BME280_temperature;BME280_humidity;BME280_pressure;Samples;Min_cycle;Max_cycle;Signal;HPM_P1;HPM_P2
2023/01/15 00:01:35;;;;;;;27.70;3.50;;;7.20;99.90;;;;;;5015288;28;20494;-72
2023/01/15 00:04:03;;;;;;;42.80;4.93;;;7.20;99.90;;;;;;5015331;28;20046;-73
2023/01/15 00:06:30;;;;;;;28.08;3.67;;;;;;;;;;4999243;28;20045;-72
2023/01/15 00:08:56;;;;;;;23.90;4.13;;;;;;;;;;5015281;28;20042;-73
2023/01/15 00:11:22;;;;;;;36.00;5.53;;;;;;;;;;5015469;28;20386;-73
2023/01/15 00:13:48;;;;;;;31.40;3.08;;;;;;;;;;5015416;28;20036;-73
2023/01/15 00:16:23;;;;;;;30.58;5.07;;;7.20;99.90;;;;;;5015110;28;20544;-72
2023/01/15 00:18:53;;;;;;;23.85;3.28;;;7.20;99.90;;;;;;5053789;28;20086;-72
2023/01/15 00:21:20;;;;;;;30.58;3.28;;;;;;;;;;5054736;28;20076;-73
2023/01/15 00:29:17;;;;;;;32.92;4.20;;;;;;;;;;5054800;28;20442;-73
2023/01/15 00:31:50;;;;;;;41.40;4.13;;;;;;;;;;5054494;28;20124;-72
2023/01/15 00:34:16;;;;;;;24.73;3.58;;;;;;;;;;5037976;28;20037;-73
2023/01/15 00:36:42;;;;;;;29.35;3.13;;;;;;;;;;5054500;28;20072;-73
2023/01/15 00:39:08;;;;;;;19.30;3.15;;;;;;;;;;5054703;28;20059;-73
2023/01/15 00:41:34;;;;;;;25.70;3.65;;;;;;;;;;5038086;28;20036;-72
2023/01/15 00:44:00;;;;;;;31.15;3.95;;;;;;;;;;5054594;28;20059;-72
2023/01/15 00:46:26;;;;;;;20.77;3.40;;;;;;;;;;5054026;28;20060;-73
2023/01/15 00:48:52;;;;;;;35.50;5.90;;;;;;;;;;5037535;28;20045;-72
2023/01/15 00:51:18;;;;;;;30.13;3.25;;;;;;;;;;5054258;28;20492;-73
2023/01/15 00:53:45;;;;;;;33.05;3.60;;;;;;;;;;5054438;28;20045;-73
2023/01/15 00:56:11;;;;;;;51.33;5.13;;;;;;;;;;5054041;28;20037;-73
2023/01/15 00:58:37;;;;;;;26.52;3.78;;;;;;;;;;5037473;28;20215;-72
2023/01/15 01:01:03;;;;;;;24.65;3.42;;;;;;;;;;5054089;28;20508;-73
2023/01/15 01:03:29;;;;;;;28.92;3.30;;;;;;;;;;5054203;28;20127;-72
2023/01/15 01:05:59;;;;;;;34.22;4.38;;;;;;;;;;5053737;28;20041;-72
2023/01/15 01:08:25;;;;;;;28.95;3.50;;;;;;;;;;5053903;28;20033;-72
2023/01/15 01:11:09;;;;;;;25.20;3.05;;;7.10;99.90;;;;;;5053267;28;20796;-72
2023/01/15 01:13:36;;;;;;;39.70;4.10;;;;;;;;;;5053597;28;20572;-72
2023/01/15 01:16:02;;;;;;;40.40;4.13;;;;;;;;;;5053701;28;20068;-72
2023/01/15 01:18:29;;;;;;;22.08;3.00;;;;;;;;;;5037045;28;20102;-72
2023/01/15 01:20:55;;;;;;;19.90;2.75;;;;;;;;;;5053596;28;20045;-72
2023/01/15 01:23:23;;;;;;;30.48;3.88;;;6.90;99.90;;;;;;5053556;28;20040;-72
2023/01/15 01:25:49;;;;;;;30.67;3.63;;;;;;;;;;5035758;28;20045;-72
2023/01/15 01:28:15;;;;;;;22.42;3.40;;;;;;;;;;5033570;28;20473;-72
2023/01/15 01:30:41;;;;;;;30.85;4.18;;;;;;;;;;5016935;28;20433;-72
2023/01/15 01:33:07;;;;;;;32.67;3.88;;;;;;;;;;5033775;28;20056;-72
2023/01/15 01:35:34;;;;;;;36.22;3.80;;;;;;;;;;5033383;28;20128;-72
2023/01/15 01:38:00;;;;;;;20.70;3.20;;;;;;;;;;5033389;28;20053;-72
2023/01/15 01:40:26;;;;;;;22.48;2.90;;;;;;;;;;5017333;28;20080;-72
2023/01/15 01:42:52;;;;;;;28.48;3.22;;;;;;;;;;5033546;28;20049;-71
2023/01/15 01:45:23;;;;;;;23.23;3.20;;;;;;;;;;5032998;28;20049;-71
2023/01/15 01:47:50;;;;;;;22.05;3.38;;;;;;;;;;5033328;28;20058;-71
2023/01/15 01:50:16;;;;;;;25.42;3.45;;;;;;;;;;5033200;28;20037;-72
2023/01/15 01:52:52;;;;;;;21.05;3.58;;;6.90;99.90;;;;;;5033070;28;20402;-72
2023/01/15 01:55:21;;;;;;;23.52;2.83;;;7.00;99.90;;;;;;5032986;28;20041;-72
2023/01/15 01:57:50;;;;;;;28.75;3.47;;;6.80;99.90;;;;;;5032900;28;20050;-72
2023/01/15 02:00:16;;;;;;;26.75;3.50;;;;;;;;;;5033182;28;20041;-72
2023/01/15 02:02:45;;;;;;;35.28;4.22;;;6.90;99.90;;;;;;5032945;28;20041;-72
2023/01/15 02:05:15;;;;;;;24.48;4.05;;;;;;;;;;5032859;28;20124;-72
2023/01/15 02:07:41;;;;;;;32.80;4.93;;;;;;;;;;5032867;28;20041;-72
2023/01/15 02:10:12;;;;;;;26.50;3.75;;;;;;;;;;5032809;28;20600;-72
2023/01/15 02:12:39;;;;;;;26.80;3.97;;;6.90;99.90;;;;;;5032705;28;20128;-72
2023/01/15 02:15:13;;;;;;;24.02;3.85;;;;;;;;;;5016261;28;20041;-72
2023/01/15 02:18:08;;;;;;;18.83;2.55;;;7.00;99.90;;;;;;5032564;28;20042;-72
2023/01/15 02:20:40;;;;;;;24.58;3.28;;;7.10;99.90;;;;;;5027690;28;20045;-72
2023/01/15 02:23:27;;;;;;;27.07;3.87;;;7.00;99.90;;;;;;5031989;28;20382;-72
2023/01/15 02:26:20;;;;;;;17.55;2.47;;;7.10;99.90;;;;;;5016071;28;20041;-72
2023/01/15 02:28:47;;;;;;;27.83;3.20;;;7.70;99.90;;;;;;5032705;28;20049;-73
2023/01/15 02:31:13;;;;;;;21.08;4.50;;;;;;;;;;5016171;28;20084;-72
2023/01/15 02:33:53;;;;;;;26.38;3.42;;;6.90;99.90;;;;;;5032538;28;20045;-72
2023/01/15 02:36:20;;;;;;;33.63;3.95;;;;;;;;;;5032430;28;20045;-72
2023/01/15 02:38:49;;;;;;;28.83;3.72;;;6.90;99.90;;;;;;5032563;28;20131;-72
2023/01/15 02:41:16;;;;;;;30.67;3.78;;;;;;;;;;5032352;28;20045;-72
2023/01/15 02:43:48;;;;;;;24.27;4.22;;;;;;;;;;5032790;28;20048;-72
2023/01/15 02:46:16;;;;;;;30.02;4.80;;;7.00;99.90;;;;;;5031909;28;20091;-72
2023/01/15 02:48:44;;;;;;;16.20;3.42;;;;;;;;;;5032099;28;20045;-72
2023/01/15 02:51:14;;;;;;;23.90;4.93;;;6.90;99.90;;;;;;5032064;28;20349;-72
2023/01/15 02:53:42;;;;;;;30.60;3.30;;;;;;;;;;5015653;28;20124;-72
2023/01/15 02:56:14;;;;;;;34.70;4.20;;;7.00;99.90;;;;;;5032106;28;20043;-73
2023/01/15 02:58:42;;;;;;;44.70;3.28;;;7.10;99.90;;;;;;5032310;28;20389;-72
2023/01/15 03:01:14;;;;;;;25.75;3.00;;;;;;;;;;5015878;28;20033;-72
2023/01/15 03:03:54;;;;;;;29.80;3.97;;;;;;;;;;5032005;28;20041;-72
2023/01/15 03:06:38;;;;;;;30.98;3.70;;;;;;;;;;5031764;28;20501;-73
2023/01/15 03:09:05;;;;;;;23.23;3.63;;;7.10;99.90;;;;;;5031741;28;20038;-73
2023/01/15 03:11:36;;;;;;;24.50;3.08;;;;;;;;;;5031637;28;20037;-72
2023/01/15 03:14:14;;;;;;;26.83;4.13;;;;;;;;;;5031994;28;20124;-73
2023/01/15 03:16:43;;;;;;;29.88;3.65;;;;;;;;;;5032162;28;20056;-73
2023/01/15 03:19:21;;;;;;;21.98;3.40;;;7.00;99.90;;;;;;5031824;28;20129;-73
2023/01/15 03:22:08;;;;;;;25.98;3.08;;;6.70;99.90;;;;;;5032142;28;20045;-72
2023/01/15 03:24:41;;;;;;;26.48;3.60;;;6.90;99.90;;;;;;5024120;28;20545;-73
2023/01/15 03:27:07;;;;;;;23.33;3.85;;;;;;;;;;5011971;28;20145;-73
2023/01/15 03:29:40;;;;;;;16.42;2.80;;;6.90;99.90;;;;;;5012196;28;20046;-73
2023/01/15 03:32:07;;;;;;;25.92;3.63;;;;;;;;;;5012366;28;20391;-72
2023/01/15 03:34:43;;;;;;;38.92;3.58;;;6.90;99.90;;;;;;5013832;28;20049;-73
2023/01/15 03:37:09;;;;;;;22.13;2.72;;;;;;;;;;5015950;28;20053;-73
2023/01/15 03:39:35;;;;;;;30.65;5.15;;;;;;;;;;5015863;28;20054;-72
2023/01/15 03:42:44;;;;;;;35.05;3.10;;;6.90;99.90;;;;;;5015845;28;20038;-72
2023/01/15 03:45:33;;;;;;;18.35;3.35;;;6.60;99.90;;;;;;5015609;28;20104;-73
2023/01/15 03:48:13;;;;;;;26.77;3.00;;;;;;;;;;5032148;28;20053;-72
2023/01/15 03:50:46;;;;;;;29.42;4.63;;;;;;;;;;5015856;28;20149;-73
2023/01/15 03:53:45;;;;;;;22.15;2.95;;;;;;;;;;5015765;28;20037;-73
2023/01/15 03:56:22;;;;;;;20.27;2.90;;;6.70;99.90;;;;;;4997569;28;20050;-73
2023/01/15 03:59:22;;;;;;;27.85;3.28;;;6.50;99.90;;;;;;5035150;28;20128;-73
2023/01/15 04:01:49;;;;;;;32.20;4.00;;;;;;;;;;5035105;28;20042;-73
2023/01/15 04:04:16;;;;;;;33.33;4.10;;;6.70;99.90;;;;;;5035205;28;20048;-72
2023/01/15 04:06:43;;;;;;;22.60;2.92;;;;;;;;;;5018751;28;20048;-73
2023/01/15 04:09:11;;;;;;;23.90;3.15;;;6.80;99.90;;;;;;5035137;28;20045;-73
2023/01/15 04:11:37;;;;;;;15.15;2.67;;;;;;;;;;5035294;28;20041;-73
2023/01/15 04:14:03;;;;;;;24.15;3.10;;;;;;;;;;5018419;28;20048;-72
2023/01/15 04:16:31;;;;;;;27.35;3.65;;;6.60;99.90;;;;;;5035157;28;20053;-73
2023/01/15 04:18:57;;;;;;;20.10;3.38;;;;;;;;;;5035102;28;20041;-73
2023/01/15 04:21:23;;;;;;;15.73;3.72;;;;;;;;;;5035088;28;20037;-72
2023/01/15 04:23:49;;;;;;;21.80;3.40;;;;;;;;;;5035063;28;20090;-73
2023/01/15 04:26:16;;;;;;;16.58;3.45;;;;;;;;;;5034759;28;20098;-73
2023/01/15 04:28:42;;;;;;;33.95;2.75;;;;;;;;;;5001923;28;20518;-72
2023/01/15 04:31:08;;;;;;;27.83;3.13;;;;;;;;;;5034660;28;20081;-73
2023/01/15 04:33:34;;;;;;;20.85;3.10;;;;;;;;;;5034973;28;20037;-72
2023/01/15 04:36:01;;;;;;;16.67;2.67;;;6.60;99.90;;;;;;5001911;28;20150;-73
2023/01/15 04:38:27;;;;;;;23.88;3.90;;;;;;;;;;5034505;28;20041;-78
2023/01/15 04:46:29;;;;;;;21.83;3.60;;;;;;;;;;5033216;28;20091;-77
2023/01/15 04:48:55;;;;;;;16.02;3.13;;;;;;;;;;5050994;28;20044;-77
2023/01/15 04:51:21;;;;;;;18.20;3.00;;;;;;;;;;5001690;28;20120;-77
2023/01/15 04:53:47;;;;;;;24.25;2.83;;;;;;;;;;5019718;28;20406;-77
2023/01/15 04:56:13;;;;;;;32.78;3.63;;;;;;;;;;5019848;28;20392;-78
2023/01/15 04:58:39;;;;;;;24.67;2.70;;;;;;;;;;5034344;28;20042;-78
2023/01/15 05:01:12;;;;;;;34.10;2.90;;;;;;;;;;5034654;28;20045;-78
2023/01/15 05:03:38;;;;;;;24.83;3.67;;;;;;;;;;5034082;28;20497;-78
2023/01/15 05:06:04;;;;;;;18.42;3.53;;;;;;;;;;5034112;28;20044;-78
2023/01/15 05:08:31;;;;;;;15.68;3.05;;;;;;;;;;5034193;28;20156;-78
2023/01/15 05:11:00;;;;;;;21.55;2.95;;;;;;;;;;5034181;28;20038;-77
2023/01/15 05:13:27;;;;;;;27.13;3.15;;;;;;;;;;5034021;28;20485;-74
2023/01/15 05:15:53;;;;;;;32.45;2.70;;;;;;;;;;5034495;28;20048;-77
2023/01/15 05:18:19;;;;;;;17.27;2.60;;;;;;;;;;5032738;28;20102;-77
2023/01/15 05:20:47;;;;;;;18.83;2.60;;;;;;;;;;5032070;28;20540;-77
2023/01/15 05:23:13;;;;;;;22.10;2.78;;;;;;;;;;5034130;28;20049;-77
2023/01/15 05:25:39;;;;;;;23.33;3.15;;;;;;;;;;5017704;28;20042;-77
2023/01/15 05:28:06;;;;;;;19.08;2.80;;;;;;;;;;5014553;28;20034;-77
2023/01/15 05:30:32;;;;;;;27.50;3.58;;;;;;;;;;4998025;28;20549;-77
2023/01/15 05:32:58;;;;;;;29.08;3.35;;;;;;;;;;5014479;28;20045;-77
2023/01/15 05:35:24;;;;;;;23.33;2.65;;;;;;;;;;5013721;28;20050;-78
2023/01/15 05:37:50;;;;;;;28.25;3.15;;;;;;;;;;5013778;28;20049;-77
2023/01/15 05:40:16;;;;;;;33.85;3.67;;;;;;;;;;5016562;28;20046;-77
2023/01/15 05:42:42;;;;;;;21.95;2.88;;;;;;;;;;5015164;28;20438;-77
2023/01/15 05:45:08;;;;;;;21.73;3.20;;;;;;;;;;5013790;28;20237;-77
2023/01/15 05:47:34;;;;;;;24.38;4.75;;;;;;;;;;5029852;28;20053;-77
2023/01/15 05:50:00;;;;;;;21.10;3.38;;;;;;;;;;5013790;28;20045;-77
2023/01/15 05:52:27;;;;;;;21.02;2.88;;;;;;;;;;5013530;28;20042;-78
2023/01/15 05:54:53;;;;;;;21.33;2.63;;;;;;;;;;5013861;28;20402;-78
2023/01/15 05:57:19;;;;;;;21.65;3.05;;;;;;;;;;5013572;28;20065;-77
2023/01/15 05:59:45;;;;;;;20.83;3.33;;;;;;;;;;4997183;28;20136;-78
2023/01/15 06:02:11;;;;;;;31.40;4.22;;;;;;;;;;5013229;28;20049;-78
2023/01/15 06:04:37;;;;;;;18.10;3.50;;;;;;;;;;5013144;28;20045;-77
2023/01/15 06:07:03;;;;;;;21.10;2.90;;;;;;;;;;5013341;28;20037;-77
2023/01/15 06:09:29;;;;;;;23.65;2.58;;;;;;;;;;5014353;28;20042;-77
2023/01/15 06:11:55;;;;;;;29.15;3.75;;;;;;;;;;5014370;28;20045;-77
2023/01/15 06:14:22;;;;;;;20.33;2.88;;;;;;;;;;4998034;28;20133;-77
2023/01/15 06:16:48;;;;;;;19.92;3.13;;;;;;;;;;5013882;28;20038;-77
2023/01/15 06:19:14;;;;;;;14.95;2.47;;;;;;;;;;5013088;28;20124;-77
2023/01/15 06:21:40;;;;;;;19.40;2.65;;;;;;;;;;5013092;28;20077;-78
2023/01/15 06:24:06;;;;;;;25.38;3.00;;;6.50;99.90;;;;;;5016652;28;20128;-77
2023/01/15 06:26:32;;;;;;;20.13;3.15;;;;;;;;;;4999916;28;20095;-78
2023/01/15 06:28:58;;;;;;;23.42;3.50;;;;;;;;;;5032643;28;20124;-78
2023/01/15 06:31:27;;;;;;;16.38;2.40;;;;;;;;;;5032780;28;20383;-78
2023/01/15 06:33:53;;;;;;;21.98;4.00;;;;;;;;;;5000405;28;20106;-77
2023/01/15 06:36:21;;;;;;;16.65;2.55;;;;;;;;;;5032507;28;20466;-78
2023/01/15 06:38:48;;;;;;;31.77;3.90;;;6.10;99.90;;;;;;5032431;28;20041;-77
2023/01/15 06:49:33;;;;;;;22.00;2.92;;;6.00;99.90;;;;;;5018775;28;20041;-77
2023/01/15 06:52:00;;;;;;;25.50;3.00;;;;;;;;;;5032154;28;20030;-78
2023/01/15 06:54:26;;;;;;;20.42;2.60;;;;;;;;;;5032241;28;20048;-78
2023/01/15 06:56:52;;;;;;;35.85;3.65;;;;;;;;;;5032219;28;20081;-78
2023/01/15 06:59:19;;;;;;;23.08;4.32;;;5.90;99.90;;;;;;5032361;28;20439;-78
2023/01/15 07:01:45;;;;;;;28.25;4.70;;;;;;;;;;5032375;28;20410;-77
2023/01/15 07:04:11;;;;;;;16.60;2.97;;;;;;;;;;5032101;28;20041;-78
2023/01/15 07:06:38;;;;;;;25.00;2.75;;;;;;;;;;5032006;28;20050;-77
2023/01/15 07:09:04;;;;;;;18.52;2.78;;;;;;;;;;5031538;28;20044;-77
2023/01/15 07:11:30;;;;;;;25.63;2.60;;;;;;;;;;5033304;28;20059;-72
2023/01/15 07:14:05;;;;;;;25.77;2.85;;;;;;;;;;5031807;28;20037;-73
2023/01/15 07:16:35;;;;;;;24.95;2.45;;;6.00;99.90;;;;;;5031787;28;20045;-72
2023/01/15 07:19:02;;;;;;;14.50;2.92;;;6.00;99.90;;;;;;5048329;28;20132;-70
2023/01/15 07:21:29;;;;;;;16.23;2.67;;;;;;;;;;5031714;28;20041;-72
2023/01/15 07:23:58;;;;;;;18.85;3.00;;;;;;;;;;5015433;28;20041;-71
2023/01/15 07:26:24;;;;;;;25.52;3.28;;;;;;;;;;5015406;28;20072;-71
2023/01/15 07:28:50;;;;;;;19.60;3.10;;;;;;;;;;5015467;28;20394;-71
2023/01/15 07:31:16;;;;;;;19.52;3.38;;;;;;;;;;5031732;28;20112;-71
2023/01/15 07:33:42;;;;;;;18.48;2.55;;;;;;;;;;5031679;28;20591;-71
2023/01/15 07:36:08;;;;;;;19.88;3.25;;;;;;;;;;5031673;28;20414;-71
2023/01/15 07:38:34;;;;;;;19.15;3.40;;;;;;;;;;5015076;28;20069;-71
2023/01/15 07:51:59;;;;;;;15.73;2.47;;;;;;;;;;5031383;28;20482;-70
2023/01/15 07:54:26;;;;;;;18.17;2.58;;;;;;;;;;5031585;28;20042;-71
2023/01/15 07:56:52;;;;;;;33.45;3.30;;;6.10;99.90;;;;;;5031558;28;20052;-71
2023/01/15 07:59:19;;;;;;;20.02;2.58;;;6.30;99.90;;;;;;5031554;28;20095;-71
2023/01/15 08:01:45;;;;;;;23.70;2.90;;;;;;;;;;5031676;28;20081;-71
2023/01/15 08:04:11;;;;;;;16.17;2.28;;;;;;;;;;5031688;28;20417;-71
2023/01/15 08:06:37;;;;;;;20.38;3.38;;;;;;;;;;5031529;28;20049;-71
2023/01/15 08:09:03;;;;;;;16.63;3.03;;;;;;;;;;5015123;28;20033;-71
2023/01/15 08:16:59;;;;;;;21.77;2.90;;;;;;;;;;5031414;28;20485;-71
2023/01/15 08:19:25;;;;;;;18.65;3.05;;;;;;;;;;5031430;28;20053;-71
2023/01/15 08:21:51;;;;;;;28.35;3.35;;;;;;;;;;5033502;28;20501;-70
2023/01/15 08:24:17;;;;;;;17.80;2.45;;;;;;;;;;5035193;28;20038;-70
2023/01/15 08:26:43;;;;;;;15.38;2.50;;;;;;;;;;5034815;28;20046;-71
2023/01/15 08:29:09;;;;;;;22.67;2.70;;;;;;;;;;5015810;28;20037;-71
2023/01/15 08:31:35;;;;;;;20.58;2.40;;;;;;;;;;5034892;28;20099;-70
2023/01/15 08:34:02;;;;;;;21.42;3.45;;;;;;;;;;5034788;28;20511;-70
2023/01/15 08:36:28;;;;;;;27.05;3.50;;;;;;;;;;5034941;28;20057;-70
2023/01/15 08:38:54;;;;;;;18.30;2.65;;;;;;;;;;5018224;28;20129;-71
2023/01/15 08:41:20;;;;;;;22.63;2.95;;;;;;;;;;5001919;28;20046;-71
2023/01/15 08:43:46;;;;;;;17.05;2.78;;;;;;;;;;5018187;28;20056;-70
2023/01/15 08:46:12;;;;;;;17.70;2.20;;;;;;;;;;5034295;28;20514;-71
2023/01/15 08:48:38;;;;;;;22.70;2.95;;;;;;;;;;5017951;28;20048;-70
2023/01/15 08:51:06;;;;;;;14.40;2.40;;;5.80;99.90;;;;;;5034543;28;20037;-71
2023/01/15 08:53:32;;;;;;;20.00;3.17;;;;;;;;;;5034309;28;20037;-71
2023/01/15 08:55:58;;;;;;;16.27;3.10;;;;;;;;;;5018289;28;20144;-71
2023/01/15 08:58:27;;;;;;;23.73;2.40;;;6.00;99.90;;;;;;5034714;28;20040;-70
2023/01/15 09:00:53;;;;;;;19.10;2.45;;;;;;;;;;5034209;28;20131;-71
2023/01/15 09:03:20;;;;;;;19.83;2.80;;;;;;;;;;5017779;28;20041;-71
2023/01/15 09:05:46;;;;;;;21.48;3.50;;;;;;;;;;5034526;28;20049;-71
2023/01/15 09:08:12;;;;;;;21.30;2.35;;;;;;;;;;5001178;28;20048;-71
2023/01/15 09:10:38;;;;;;;27.00;4.65;;;;;;;;;;5033902;28;20107;-71
2023/01/15 09:13:04;;;;;;;14.38;2.28;;;;;;;;;;5033941;28;20095;-71
2023/01/15 09:15:31;;;;;;;19.08;3.75;;;6.60;99.90;;;;;;5034078;28;20037;-71
2023/01/15 09:17:59;;;;;;;26.17;2.78;;;;;;;;;;5017613;28;20077;-71
2023/01/15 09:20:25;;;;;;;16.17;2.25;;;;;;;;;;5033541;28;20490;-71
2023/01/15 09:22:51;;;;;;;20.05;3.72;;;;;;;;;;5016886;28;20083;-71
2023/01/15 09:25:18;;;;;;;26.88;3.10;;;;;;;;;;5033297;28;20050;-71
2023/01/15 09:27:45;;;;;;;26.13;3.33;;;6.70;99.90;;;;;;5033336;28;20046;-71
2023/01/15 09:30:17;;;;;;;26.33;2.65;;;;;;;;;;5033409;28;20493;-71
2023/01/15 09:32:43;;;;;;;26.52;3.10;;;;;;;;;;5033311;28;20429;-71
2023/01/15 09:35:10;;;;;;;20.35;3.17;;;;;;;;;;5017120;28;20038;-71
2023/01/15 09:37:36;;;;;;;32.50;4.15;;;;;;;;;;5017333;28;20044;-71
2023/01/15 09:40:03;;;;;;;25.20;2.92;;;;;;;;;;5016776;28;20041;-71
2023/01/15 09:42:35;;;;;;;17.88;3.47;;;;;;;;;;5033344;28;20049;-71
2023/01/15 09:45:13;;;;;;;22.88;3.75;;;6.80;99.90;;;;;;5033248;28;20044;-71
2023/01/15 09:47:54;;;;;;;25.33;4.28;;;6.40;99.90;;;;;;5033010;28;20144;-71
2023/01/15 09:50:20;;;;;;;23.67;2.78;;;;;;;;;;5033306;28;20041;-71
2023/01/15 09:52:49;;;;;;;19.55;2.85;;;;;;;;;;5033046;28;20098;-71
2023/01/15 09:55:19;;;;;;;18.42;2.92;;;;;;;;;;5032965;28;20505;-71
2023/01/15 09:57:49;;;;;;;23.80;3.85;;;6.70;99.90;;;;;;5032715;28;20059;-71
2023/01/15 10:00:18;;;;;;;17.77;2.95;;;;;;;;;;5016605;28;20033;-71
2023/01/15 10:02:50;;;;;;;20.98;2.83;;;;;;;;;;5032883;28;20037;-71
2023/01/15 10:05:28;;;;;;;21.85;3.50;;;;;;;;;;5033062;28;20045;-71
2023/01/15 10:07:54;;;;;;;20.17;2.60;;;;;;;;;;5016369;28;20040;-71
2023/01/15 10:10:22;;;;;;;18.75;2.53;;;;;;;;;;5016180;28;20037;-71
2023/01/15 10:12:52;;;;;;;29.20;4.90;;;6.70;99.90;;;;;;5032825;28;20050;-71
2023/01/15 10:15:19;;;;;;;23.02;2.85;;;;;;;;;;5033037;28;20099;-72
2023/01/15 10:17:47;;;;;;;31.73;3.97;;;;;;;;;;5032638;28;20049;-71
2023/01/15 10:20:16;;;;;;;28.73;3.17;;;;;;;;;;5032417;28;20466;-71
2023/01/15 10:23:00;;;;;;;22.98;2.63;;;6.60;99.90;;;;;;5032839;28;20033;-71
2023/01/15 10:25:28;;;;;;;26.45;3.35;;;;;;;;;;5032282;28;20528;-70
2023/01/15 10:27:58;;;;;;;17.52;2.78;;;;;;;;;;5032261;28;20413;-72
2023/01/15 10:30:30;;;;;;;24.42;2.55;;;;;;;;;;5016257;28;20543;-71
2023/01/15 10:32:57;;;;;;;27.02;2.92;;;;;;;;;;5048442;28;20040;-70
2023/01/15 10:35:30;;;;;;;23.88;3.25;;;6.90;99.90;;;;;;5016116;28;20103;-71
2023/01/15 10:37:56;;;;;;;;;;;;;;;;;;5032684;28;20038;-71
2023/01/15 10:40:48;;;;;;;26.50;3.03;;;;;;;;;;5032168;28;19917;-71
2023/01/15 10:43:14;;;;;;;17.08;2.75;;;;;;;;;;5021773;28;20052;-71
2023/01/15 10:45:44;;;;;;;23.05;4.45;;;;;;;;;;5051610;28;20063;-71
2023/01/15 10:48:19;;;;;;;37.28;3.72;;;;;;;;;;5052170;28;20083;-71
2023/01/15 10:50:45;;;;;;;22.00;2.95;;;;;;;;;;5053259;28;20045;-71
2023/01/15 10:53:42;;;;;;;21.38;2.55;;;7.00;99.90;;;;;;5051953;28;20132;-72
2023/01/15 10:56:12;;;;;;;23.65;3.70;;;;;;;;;;5034698;28;20096;-71
2023/01/15 10:58:44;;;;;;;23.02;2.70;;;;;;;;;;5044016;28;20033;-71
2023/01/15 11:01:20;;;;;;;21.10;2.85;;;7.00;99.90;;;;;;5023343;28;20466;-71
2023/01/15 11:03:46;;;;;;;25.45;2.83;;;;;;;;;;5025761;28;20038;-71
2023/01/15 11:06:14;;;;;;;23.67;2.78;;;;;;;;;;5023662;28;20034;-71
2023/01/15 11:08:45;;;;;;;26.63;3.83;;;7.10;99.90;;;;;;5040331;28;20076;-70
2023/01/15 11:19:35;;;;;;;21.13;3.28;;;;;;;;;;5042271;28;20531;-71
2023/01/15 11:20:35;;;;;;;24.05;3.67;;;6.90;99.90;;;;;;5058766;28;20053;-71
2023/01/15 11:23:15;;;;;;;29.45;4.45;;;;;;;;;;5039825;28;20552;-70
2023/01/15 11:25:52;;;;;;;30.20;3.97;;;;;;;;;;5022975;28;20390;-70
2023/01/15 11:28:29;;;;;;;31.85;3.35;;;;;;;;;;5038204;28;20037;-70
2023/01/15 11:30:55;;;;;;;41.03;3.95;;;;;;;;;;5054977;28;20076;-70
2023/01/15 11:33:23;;;;;;;22.63;3.05;;;;;;;;;;5024531;28;20037;-70
2023/01/15 11:35:57;;;;;;;20.45;3.75;;;;;;;;;;5023916;28;20428;-71
2023/01/15 11:38:23;;;;;;;24.30;5.00;;;;;;;;;;5040757;28;20041;-70
2023/01/15 11:40:53;;;;;;;24.48;3.22;;;;;;;;;;5042105;28;20037;-71
2023/01/15 11:51:57;;;;;;;28.80;3.90;;;6.50;99.90;;;;;;4999650;28;20038;-70
2023/01/15 11:54:26;;;;;;;23.58;4.25;;;;;;;;;;5000465;28;20069;-70
2023/01/15 11:56:55;;;;;;;15.13;2.85;;;;;;;;;;5015460;28;20052;-70
2023/01/15 11:59:22;;;;;;;15.35;2.50;;;;;;;;;;5029661;28;20049;-70
2023/01/15 12:01:59;;;;;;;28.38;4.05;;;;;;;;;;5018670;28;20056;-70
2023/01/15 12:04:28;;;;;;;16.70;2.97;;;6.20;99.90;;;;;;5035322;28;20396;-70
2023/01/15 12:06:54;;;;;;;23.60;3.92;;;;;;;;;;5034885;28;20486;-70
2023/01/15 12:09:47;;;;;;;25.92;4.95;;;6.20;99.90;;;;;;5019086;28;20378;-70
2023/01/15 12:12:35;;;;;;;25.30;4.07;;;;;;;;;;5034908;28;20044;-70
2023/01/15 12:15:02;;;;;;;29.63;3.25;;;;;;;;;;5035090;28;20393;-70
2023/01/15 12:17:34;;;;;;;36.75;4.40;;;;;;;;;;5034784;28;20049;-70
2023/01/15 12:20:19;;;;;;;21.50;3.22;;;;;;;;;;5035226;28;20399;-70
2023/01/15 12:22:45;;;;;;;24.70;4.35;;;;;;;;;;5034875;28;20056;-70
2023/01/15 12:25:30;;;;;;;22.70;3.53;;;6.20;99.90;;;;;;5034736;28;20409;-68
2023/01/15 12:27:59;;;;;;;24.95;2.88;;;;;;;;;;5034448;28;20033;-68
2023/01/15 12:30:53;;;;;;;21.00;3.00;;;6.10;99.90;;;;;;5034886;28;20449;-68
2023/01/15 12:33:27;;;;;;;31.40;3.25;;;;;;;;;;5034610;28;20045;-68
2023/01/15 12:35:56;;;;;;;20.55;3.47;;;;;;;;;;5034424;28;20128;-68
2023/01/15 12:38:40;;;;;;;30.55;3.80;;;6.20;99.90;;;;;;5034523;28;20481;-68
2023/01/15 12:41:10;;;;;;;28.50;3.28;;;;;;;;;;5018216;28;20405;-68
2023/01/15 12:46:28;;;;;;;41.08;4.35;;;;;;;;;;5033921;28;20057;-68
2023/01/15 12:49:29;;;;;;;29.45;4.60;;;6.30;99.90;;;;;;5018036;28;20111;-69
2023/01/15 12:52:09;;;;;;;34.90;4.57;;;6.30;99.90;;;;;;5034052;28;20080;-68
2023/01/15 12:54:44;;;;;;;35.00;4.50;;;6.20;99.90;;;;;;5034153;28;20045;-68
2023/01/15 12:57:10;;;;;;;36.13;4.20;;;;;;;;;;5033984;28;20052;-68
2023/01/15 12:59:40;;;;;;;17.45;2.53;;;;;;;;;;5017361;28;20075;-68
2023/01/15 13:02:13;;;;;;;19.25;3.15;;;;;;;;;;5034068;28;20127;-69
2023/01/15 13:04:47;;;;;;;15.52;2.72;;;5.90;99.90;;;;;;5033916;28;20045;-69
2023/01/15 13:07:32;;;;;;;14.65;2.40;;;;;;;;;;5032897;28;20041;-69
2023/01/15 13:10:07;;;;;;;7.47;2.03;;;;;;;;;;5034011;28;20092;-68
2023/01/15 13:12:34;;;;;;;12.52;2.40;;;;;;;;;;5034090;28;20041;-69
2023/01/15 13:15:01;;;;;;;7.68;2.20;;;;;;;;;;5017641;28;20086;-69
2023/01/15 13:18:11;;;;;;;10.57;2.30;;;5.40;99.90;;;;;;5033640;28;20127;-68
2023/01/15 13:21:03;;;;;;;18.98;2.85;;;;;;;;;;5048455;28;20118;-71
2023/01/15 13:23:29;;;;;;;11.55;2.15;;;;;;;;;;5051818;28;20499;-71
2023/01/15 13:26:02;;;;;;;12.00;2.20;;;;;;;;;;5034620;28;20393;-69
2023/01/15 13:28:49;;;;;;;18.17;2.53;;;;;;;;;;5038531;28;20045;-69
2023/01/15 13:31:34;;;;;;;19.73;2.45;;;;;;;;;;5043642;28;20041;-69
2023/01/15 13:34:03;;;;;;;14.27;2.63;;;;;;;;;;5041394;28;20037;-70
2023/01/15 13:36:33;;;;;;;15.57;2.50;;;;;;;;;;5032897;28;20437;-69
2023/01/15 13:39:02;;;;;;;17.10;3.03;;;;;;;;;;5036170;28;20047;-71
2023/01/15 13:44:18;;;;;;;25.00;3.95;;;;;;;;;;5033002;28;20049;-70
2023/01/15 13:46:45;;;;;;;23.20;2.88;;;5.90;99.90;;;;;;5032736;28;20053;-70
2023/01/15 13:49:20;;;;;;;28.58;3.33;;;;;;;;;;5032897;28;20493;-70
2023/01/15 13:51:48;;;;;;;27.38;4.97;;;;;;;;;;5032982;28;20045;-70
2023/01/15 13:54:19;;;;;;;22.65;3.75;;;;;;;;;;5032920;28;20394;-70
2023/01/15 13:56:45;;;;;;;35.28;3.65;;;;;;;;;;5032767;28;20045;-70
2023/01/15 13:59:33;;;;;;;29.00;4.00;;;6.10;99.90;;;;;;5034035;28;20041;-70
2023/01/15 14:01:59;;;;;;;29.35;4.55;;;;;;;;;;5016195;28;20055;-70
2023/01/15 14:04:38;;;;;;;48.13;5.60;;;6.50;99.90;;;;;;5032608;28;20052;-70
2023/01/15 14:07:17;;;;;;;43.65;4.07;;;;;;;;;;5032668;28;20128;-70
2023/01/15 14:09:43;;;;;;;23.38;4.10;;;;;;;;;;5032713;28;20710;-70
2023/01/15 14:12:09;;;;;;;34.47;4.22;;;;;;;;;;5016517;28;20386;-70
2023/01/15 14:14:54;;;;;;;36.15;4.40;;;;;;;;;;5032530;28;20033;-70
2023/01/15 14:17:28;;;;;;;36.70;4.70;;;;;;;;;;5032536;28;20045;-70
2023/01/15 14:20:00;;;;;;;25.25;3.72;;;;;;;;;;5015926;28;20141;-70
2023/01/15 14:22:26;;;;;;;;;;;;;;;;;;5033041;28;20055;-70
2023/01/15 14:25:16;;;;;;;35.00;4.40;;;6.60;99.90;;;;;;5032340;28;19974;-70
2023/01/15 14:27:57;;;;;;;21.88;3.42;;;;;;;;;;5039871;28;20033;-70
2023/01/15 14:30:33;;;;;;;39.65;3.60;;;;;;;;;;5052288;28;20493;-70
2023/01/15 14:33:11;;;;;;;23.10;3.53;;;;;;;;;;5044818;28;20034;-71
2023/01/15 14:35:40;;;;;;;23.30;4.47;;;;;;;;;;5032600;28;20092;-70
2023/01/15 14:38:11;;;;;;;29.48;3.45;;;6.60;99.90;;;;;;5032239;28;20116;-70
2023/01/15 14:40:39;;;;;;;25.00;3.90;;;;;;;;;;5032029;28;20046;-69
2023/01/15 14:43:13;;;;;;;23.35;3.70;;;;;;;;;;5032057;28;20075;-69
2023/01/15 14:45:45;;;;;;;27.15;4.93;;;;;;;;;;5031909;28;20044;-70
2023/01/15 14:48:28;;;;;;;24.38;3.83;;;;;;;;;;5031845;28;20049;-70
2023/01/15 14:50:56;;;;;;;28.88;4.25;;;;;;;;;;5031839;28;20126;-70
2023/01/15 14:53:22;;;;;;;34.78;4.95;;;;;;;;;;5031836;28;20125;-70
2023/01/15 14:55:48;;;;;;;25.98;4.20;;;;;;;;;;5031967;28;20046;-70
2023/01/15 14:58:17;;;;;;;27.58;3.80;;;;;;;;;;5031909;28;20038;-70
2023/01/15 15:00:45;;;;;;;32.92;4.43;;;;;;;;;;5034638;28;20120;-70
2023/01/15 15:03:25;;;;;;;31.95;4.43;;;6.70;99.90;;;;;;5047838;28;20049;-70
2023/01/15 15:05:51;;;;;;;28.02;3.80;;;6.70;99.90;;;;;;5031971;28;20056;-70
2023/01/15 15:08:18;;;;;;;20.90;3.60;;;;;;;;;;5031879;28;20393;-70
2023/01/15 15:10:46;;;;;;;21.17;4.10;;;;;;;;;;5032134;28;20053;-71
2023/01/15 15:13:30;;;;;;;20.80;3.97;;;;;;;;;;5015523;28;20041;-70
2023/01/15 15:16:08;;;;;;;21.70;2.92;;;;;;;;;;5045174;28;20110;-71
2023/01/15 15:18:43;;;;;;;19.48;3.60;;;6.20;99.90;;;;;;5034979;28;20052;-71